createdAt,value
2019-05-07T00:02:05.696Z,1.60
2019-05-07T00:04:33.269Z,1.47
2019-05-07T00:07:02.375Z,1.20
2019-05-07T00:09:29.512Z,1.27
2019-05-07T00:11:57.441Z,1.00
2019-05-07T00:14:24.708Z,1.00
2019-05-07T00:16:53.479Z,1.10
2019-05-07T00:19:22.940Z,0.90
2019-05-07T00:21:49.768Z,1.12
2019-05-07T00:24:16.964Z,1.10
2019-05-07T00:26:44.372Z,1.05
2019-05-07T00:29:12.936Z,0.70
2019-05-07T00:31:41.974Z,1.20
2019-05-07T00:34:09.522Z,1.40
2019-05-07T00:36:38.351Z,1.50
2019-05-07T00:39:07.461Z,1.10
2019-05-07T00:41:52.946Z,1.00
2019-05-07T00:44:22.073Z,0.93
2019-05-07T00:46:49.379Z,0.78
2019-05-07T00:49:16.940Z,0.65
2019-05-07T00:51:44.216Z,0.50
2019-05-07T00:54:12.315Z,0.53
2019-05-07T00:56:39.776Z,0.60
2019-05-07T00:59:07.229Z,0.60
2019-05-07T01:01:34.892Z,0.60
2019-05-07T01:04:02.788Z,0.57
2019-05-07T01:06:30.060Z,0.50
2019-05-07T01:08:57.264Z,0.50
2019-05-07T01:11:24.563Z,0.70
2019-05-07T01:13:52.121Z,0.70
2019-05-07T01:16:19.448Z,0.60
2019-05-07T01:18:46.715Z,0.42
2019-05-07T01:21:13.988Z,0.78
2019-05-07T01:23:42.754Z,0.60
2019-05-07T01:26:12.283Z,0.60
2019-05-07T01:28:56.949Z,0.50
2019-05-07T01:31:25.029Z,0.42
2019-05-07T01:33:53.865Z,0.50
2019-05-07T01:36:22.599Z,0.60
2019-05-07T01:38:52.176Z,0.40
2019-05-07T01:41:19.145Z,0.47
2019-05-07T01:43:46.436Z,0.45
2019-05-07T01:46:14.000Z,0.30
2019-05-07T01:48:42.977Z,0.62
2019-05-07T01:51:12.681Z,0.45
2019-05-07T01:53:39.600Z,0.50
2019-05-07T01:56:06.804Z,0.45
2019-05-07T01:58:34.003Z,0.40
2019-05-07T02:01:02.814Z,0.60
2019-05-07T02:03:37.697Z,0.50
2019-05-07T02:06:06.731Z,0.50
2019-05-07T02:08:38.128Z,0.70
2019-05-07T02:11:07.017Z,0.70
2019-05-07T02:13:34.260Z,0.95
2019-05-07T02:16:04.174Z,0.42
2019-05-07T02:18:32.654Z,0.50
2019-05-07T02:21:00.448Z,0.60
2019-05-07T02:23:27.649Z,0.50
2019-05-07T02:25:54.845Z,0.50
2019-05-07T02:28:22.808Z,0.70
2019-05-07T02:30:53.299Z,0.55
2019-05-07T02:33:18.925Z,0.50
2019-05-07T02:35:46.160Z,1.10
2019-05-07T02:38:15.084Z,1.00
2019-05-07T02:40:43.982Z,0.90
2019-05-07T02:43:14.017Z,0.70
2019-05-07T02:45:43.995Z,0.60
2019-05-07T02:48:12.934Z,0.88
2019-05-07T02:50:44.257Z,0.93
2019-05-07T02:53:14.626Z,1.00
2019-05-07T02:55:43.782Z,0.60
2019-05-07T02:58:13.149Z,0.53
2019-05-07T03:00:43.142Z,0.50
2019-05-07T03:03:08.988Z,0.50
2019-05-07T03:05:36.227Z,0.30
2019-05-07T03:08:03.679Z,0.42
2019-05-07T03:10:33.646Z,0.42
2019-05-07T03:13:02.731Z,0.30
2019-05-07T03:15:29.230Z,0.23
2019-05-07T03:17:56.733Z,0.82
2019-05-07T03:20:25.710Z,2.08
2019-05-07T03:22:53.970Z,4.15
2019-05-07T03:25:25.923Z,5.25
2019-05-07T03:27:53.708Z,3.10
2019-05-07T03:30:26.050Z,1.83
2019-05-07T03:32:56.277Z,1.40
2019-05-07T03:35:29.807Z,1.30
2019-05-07T03:37:57.240Z,0.88
2019-05-07T03:40:24.437Z,0.63
2019-05-07T03:42:53.543Z,0.80
2019-05-07T03:45:24.974Z,0.90
2019-05-07T03:47:56.993Z,0.88
2019-05-07T03:50:24.268Z,0.70
2019-05-07T03:52:54.262Z,0.57
2019-05-07T03:55:23.169Z,0.53
2019-05-07T03:57:52.551Z,0.30
2019-05-07T04:00:18.591Z,0.40
2019-05-07T04:02:45.890Z,0.70
2019-05-07T04:05:14.036Z,0.90
2019-05-07T04:07:43.008Z,1.95
2019-05-07T04:10:14.490Z,1.82
2019-05-07T04:12:39.603Z,2.62
2019-05-07T04:15:06.864Z,2.60
2019-05-07T04:17:34.200Z,3.95
2019-05-07T04:20:04.443Z,4.10
2019-05-07T04:22:30.477Z,4.75
2019-05-07T04:24:59.385Z,5.08
2019-05-07T04:27:28.451Z,5.45
2019-05-07T04:29:55.686Z,4.75
2019-05-07T04:32:24.521Z,5.00
2019-05-07T04:34:56.180Z,3.52
2019-05-07T04:37:24.083Z,2.77
2019-05-07T04:39:54.188Z,1.90
2019-05-07T04:42:24.306Z,2.00
2019-05-07T04:44:53.966Z,1.32
2019-05-07T04:47:34.635Z,1.25
2019-05-07T04:49:49.198Z,1.35
2019-05-07T04:52:18.173Z,2.55
2019-05-07T04:54:45.369Z,3.05
2019-05-07T04:57:27.734Z,3.70
2019-05-07T04:59:56.774Z,3.40
2019-05-07T05:02:26.149Z,3.72
2019-05-07T05:04:53.345Z,2.45
2019-05-07T05:07:22.486Z,2.55
2019-05-07T05:09:49.877Z,3.50
2019-05-07T05:12:17.077Z,3.52
2019-05-07T05:14:44.318Z,4.03
2019-05-07T05:17:12.982Z,5.15
2019-05-07T05:19:40.287Z,5.22
2019-05-07T05:22:12.778Z,4.22
2019-05-07T05:24:44.451Z,4.22
2019-05-07T05:27:12.274Z,3.30
2019-05-07T05:29:39.704Z,3.22
2019-05-07T05:32:07.071Z,2.70
2019-05-07T05:34:34.359Z,2.30
2019-05-07T05:37:02.449Z,3.08
2019-05-07T05:39:31.874Z,3.30
2019-05-07T05:42:02.401Z,3.02
2019-05-07T05:44:32.037Z,2.10
2019-05-07T05:46:59.426Z,2.35
2019-05-07T05:49:26.621Z,2.52
2019-05-07T05:52:12.459Z,2.80
2019-05-07T05:54:42.635Z,3.20
2019-05-07T05:57:17.500Z,5.30
2019-05-07T05:59:55.231Z,3.70
2019-05-07T06:02:34.804Z,3.30
2019-05-07T06:05:03.716Z,3.90
2019-05-07T06:07:38.633Z,4.28
2019-05-07T06:10:07.874Z,5.28
2019-05-07T06:12:39.724Z,5.10
2019-05-07T06:15:14.489Z,3.45
2019-05-07T06:17:43.440Z,2.70
2019-05-07T06:20:22.586Z,3.00
2019-05-07T06:23:08.013Z,3.60
2019-05-07T06:25:35.305Z,2.72
2019-05-07T06:28:02.584Z,1.60
2019-05-07T06:30:29.884Z,3.80
2019-05-07T06:32:57.076Z,4.40
2019-05-07T06:35:24.300Z,4.05
2019-05-07T06:37:52.171Z,2.70
2019-05-07T06:40:24.070Z,1.90
2019-05-07T06:42:54.574Z,2.92
2019-05-07T06:45:29.284Z,3.17
2019-05-07T06:47:56.558Z,6.60
2019-05-07T06:50:23.788Z,7.43
2019-05-07T06:52:51.950Z,5.83
2019-05-07T06:55:19.303Z,4.70
2019-05-07T06:57:46.596Z,4.92
2019-05-07T07:00:22.549Z,3.23
2019-05-07T07:02:54.269Z,2.12
2019-05-07T07:05:34.953Z,4.97
2019-05-07T07:08:09.912Z,3.90
2019-05-07T07:10:55.080Z,3.62
2019-05-07T07:13:24.068Z,3.60
2019-05-07T07:15:52.214Z,3.90
2019-05-07T07:18:19.944Z,5.47
2019-05-07T07:20:48.629Z,6.40
2019-05-07T07:23:15.977Z,5.30
2019-05-07T07:25:43.996Z,5.15
2019-05-07T07:28:12.306Z,3.92
2019-05-07T07:30:53.140Z,4.25
2019-05-07T07:33:22.481Z,5.12
2019-05-07T07:35:51.926Z,6.00
2019-05-07T07:38:37.595Z,4.25
2019-05-07T07:41:09.968Z,9.88
2019-05-07T07:43:37.186Z,9.13
2019-05-07T07:46:04.797Z,9.10
2019-05-07T07:48:32.242Z,10.38
2019-05-07T07:50:59.505Z,9.60
2019-05-07T07:53:26.836Z,7.22
2019-05-07T07:56:12.131Z,10.03
2019-05-07T07:58:56.539Z,7.08
2019-05-07T08:01:42.192Z,11.83
2019-05-07T08:04:12.089Z,8.60
2019-05-07T08:06:41.813Z,6.45
2019-05-07T08:09:08.404Z,4.65
2019-05-07T08:11:35.655Z,4.17
2019-05-07T08:14:02.986Z,5.60
2019-05-07T08:16:32.623Z,8.75
2019-05-07T08:18:59.231Z,9.13
2019-05-07T08:21:26.506Z,8.20
2019-05-07T08:23:53.771Z,5.75
2019-05-07T08:26:21.911Z,6.80
2019-05-07T08:28:49.303Z,7.05
2019-05-07T08:31:26.938Z,7.05
2019-05-07T08:33:58.883Z,12.03
2019-05-07T08:36:26.124Z,10.23
2019-05-07T08:38:57.090Z,11.12
2019-05-07T08:41:25.272Z,8.18
2019-05-07T08:44:10.768Z,7.30
2019-05-07T08:46:36.963Z,6.78
2019-05-07T08:49:05.211Z,7.30
2019-05-07T08:51:32.734Z,8.75
2019-05-07T08:54:06.029Z,9.23
2019-05-07T08:56:35.977Z,8.05
2019-05-07T08:59:03.973Z,9.63
2019-05-07T09:01:32.542Z,6.25
2019-05-07T09:03:59.840Z,8.83
2019-05-07T09:06:35.857Z,8.95
2019-05-07T09:09:06.384Z,6.90
2019-05-07T09:11:33.764Z,7.92
2019-05-07T09:14:01.845Z,6.00
2019-05-07T09:16:29.200Z,4.05
2019-05-07T09:18:56.413Z,4.10
2019-05-07T09:21:23.648Z,3.10
2019-05-07T09:23:52.320Z,6.90
2019-05-07T09:26:27.033Z,8.83
2019-05-07T09:28:55.935Z,5.17
2019-05-07T09:31:24.795Z,4.92
2019-05-07T09:33:53.559Z,5.30
2019-05-07T09:36:22.850Z,7.10
2019-05-07T09:38:56.716Z,6.67
2019-05-07T09:41:27.768Z,5.15
2019-05-07T09:43:55.733Z,3.58
2019-05-07T09:46:22.953Z,2.92
2019-05-07T09:48:52.254Z,5.17
2019-05-07T09:51:19.088Z,3.70
2019-05-07T09:53:46.544Z,3.33
2019-05-07T09:56:13.780Z,3.40
2019-05-07T09:58:42.586Z,4.30
2019-05-07T10:01:09.989Z,5.15
2019-05-07T10:03:37.189Z,4.78
2019-05-07T10:06:04.408Z,4.80
2019-05-07T10:08:32.177Z,5.30
2019-05-07T10:10:59.467Z,2.72
2019-05-07T10:13:28.300Z,2.20
2019-05-07T10:15:55.596Z,2.17
2019-05-07T10:18:23.059Z,2.20
2019-05-07T10:20:52.074Z,1.65
2019-05-07T10:23:19.435Z,1.70
2019-05-07T10:25:46.772Z,1.57
2019-05-07T10:28:13.992Z,1.40
2019-05-07T10:30:42.804Z,1.90
2019-05-07T10:33:12.275Z,1.45
2019-05-07T10:35:39.629Z,1.70
2019-05-07T10:38:07.104Z,1.75
2019-05-07T10:40:34.406Z,1.37
2019-05-07T10:43:01.963Z,1.10
2019-05-07T10:45:36.897Z,1.27
2019-05-07T10:48:06.172Z,3.77
2019-05-07T10:50:38.903Z,4.65
2019-05-07T10:53:04.194Z,4.03
2019-05-07T10:55:32.815Z,4.25
2019-05-07T10:58:00.171Z,3.37
2019-05-07T11:00:27.439Z,4.28
2019-05-07T11:02:54.831Z,4.42
2019-05-07T11:05:22.294Z,2.98
2019-05-07T11:07:49.564Z,2.60
2019-05-07T11:10:16.797Z,3.37
2019-05-07T11:12:44.338Z,2.90
2019-05-07T11:15:12.583Z,2.10
2019-05-07T11:17:44.707Z,4.47
2019-05-07T11:20:12.771Z,4.30
2019-05-07T11:22:40.241Z,4.47
2019-05-07T11:25:07.913Z,3.87
2019-05-07T11:27:35.183Z,4.65
2019-05-07T11:30:02.782Z,4.17
2019-05-07T11:32:32.029Z,2.55
2019-05-07T11:34:59.021Z,1.85
2019-05-07T11:37:26.292Z,2.80
2019-05-07T11:39:53.829Z,2.25
2019-05-07T11:42:22.664Z,1.95
2019-05-07T11:44:52.157Z,3.90
2019-05-07T11:47:31.722Z,2.72
2019-05-07T11:50:16.850Z,3.17
2019-05-07T11:52:45.952Z,2.62
2019-05-07T11:55:13.155Z,2.30
2019-05-07T11:57:44.149Z,1.55
2019-05-07T12:00:12.908Z,2.30
2019-05-07T12:02:41.982Z,2.50
2019-05-07T12:05:12.137Z,3.27
2019-05-07T12:07:39.420Z,3.37
2019-05-07T12:10:06.620Z,3.22
2019-05-07T12:12:33.812Z,3.55
2019-05-07T12:15:02.448Z,3.12
2019-05-07T12:17:31.667Z,3.12
2019-05-07T12:19:58.984Z,2.80
2019-05-07T12:22:30.572Z,2.27
2019-05-07T12:24:57.841Z,1.90
2019-05-07T12:27:25.236Z,3.27
2019-05-07T12:29:52.880Z,2.02
2019-05-07T12:32:22.162Z,1.77
2019-05-07T12:34:52.749Z,1.20
2019-05-07T12:37:20.088Z,0.90
2019-05-07T12:39:47.285Z,0.88
2019-05-07T12:42:14.509Z,1.12
2019-05-07T12:44:42.483Z,1.07
2019-05-07T12:47:11.897Z,1.15
2019-05-07T12:49:38.786Z,1.30
2019-05-07T12:52:14.612Z,2.10
2019-05-07T12:54:43.444Z,2.20
2019-05-07T12:57:11.835Z,2.08
2019-05-07T12:59:39.144Z,2.92
2019-05-07T13:02:21.389Z,1.87
2019-05-07T13:04:37.269Z,2.45
2019-05-07T13:07:06.202Z,2.02
2019-05-07T13:09:33.504Z,2.00
2019-05-07T13:12:02.872Z,1.67
2019-05-07T13:14:29.908Z,1.32
2019-05-07T13:16:57.128Z,1.00
2019-05-07T13:19:24.330Z,1.00
2019-05-07T13:21:51.636Z,1.98
2019-05-07T13:24:19.102Z,1.20
2019-05-07T13:26:46.319Z,1.00
2019-05-07T13:29:13.653Z,0.82
2019-05-07T13:31:41.296Z,0.72
2019-05-07T13:34:08.573Z,0.65
2019-05-07T13:36:37.433Z,0.62
2019-05-07T13:39:07.568Z,0.80
2019-05-07T13:41:42.265Z,0.50
2019-05-07T13:44:12.379Z,0.85
2019-05-07T13:46:42.149Z,0.70
2019-05-07T13:49:12.462Z,0.80
2019-05-07T13:51:41.769Z,0.45
2019-05-07T13:54:09.276Z,0.72
2019-05-07T13:56:36.480Z,0.75
2019-05-07T13:59:05.090Z,0.70
2019-05-07T14:01:35.358Z,0.82
2019-05-07T14:04:04.071Z,0.82
2019-05-07T14:06:42.654Z,1.72
2019-05-07T14:09:12.417Z,1.70
2019-05-07T14:11:41.954Z,1.12
2019-05-07T14:14:08.574Z,0.93
2019-05-07T14:16:36.113Z,0.70
2019-05-07T14:19:04.217Z,0.85
2019-05-07T14:21:32.507Z,1.30
2019-05-07T14:23:59.822Z,1.60
2019-05-07T14:26:27.029Z,1.70
2019-05-07T14:28:54.426Z,2.08
2019-05-07T14:31:21.696Z,1.70
2019-05-07T14:33:53.968Z,1.65
2019-05-07T14:36:22.369Z,2.20
2019-05-07T14:38:53.698Z,2.47
2019-05-07T14:41:22.911Z,2.12
2019-05-07T14:44:09.679Z,1.95
2019-05-07T14:46:47.363Z,2.10
2019-05-07T14:49:05.892Z,1.67
2019-05-07T14:51:33.088Z,2.35
2019-05-07T14:54:01.794Z,2.50
2019-05-07T14:56:29.092Z,1.70
2019-05-07T14:58:56.576Z,1.40
2019-05-07T15:01:23.777Z,1.75
2019-05-07T15:03:51.707Z,2.55
2019-05-07T15:06:18.941Z,2.58
2019-05-07T15:08:46.172Z,1.77
2019-05-07T15:11:13.632Z,1.65
2019-05-07T15:13:42.638Z,1.98
2019-05-07T15:16:11.917Z,2.10
2019-05-07T15:18:42.380Z,1.50
2019-05-07T15:21:12.215Z,2.20
2019-05-07T15:23:39.258Z,2.17
2019-05-07T15:26:06.500Z,2.55
2019-05-07T15:28:34.487Z,2.15
2019-05-07T15:31:12.378Z,1.67
2019-05-07T15:33:41.654Z,1.80
2019-05-07T15:36:08.597Z,1.70
2019-05-07T15:38:35.866Z,1.20
2019-05-07T15:41:03.124Z,0.98
2019-05-07T15:43:32.290Z,0.93
2019-05-07T15:45:59.358Z,0.70
2019-05-07T15:48:28.249Z,1.10
2019-05-07T15:50:55.544Z,1.02
2019-05-07T15:53:32.246Z,0.93
2019-05-07T15:55:59.250Z,0.70
2019-05-07T15:58:26.519Z,1.20
2019-05-07T16:00:53.792Z,1.05
2019-05-07T16:03:32.186Z,0.70
2019-05-07T16:05:59.422Z,0.60
2019-05-07T16:08:28.325Z,0.50
2019-05-07T16:10:55.912Z,0.37
2019-05-07T16:13:27.989Z,0.47
2019-05-07T16:15:55.260Z,0.60
2019-05-07T16:18:26.985Z,0.80
2019-05-07T16:20:54.464Z,0.70
2019-05-07T16:23:22.111Z,0.57
2019-05-07T16:25:49.452Z,1.30
2019-05-07T16:28:16.726Z,1.50
2019-05-07T16:30:43.919Z,1.57
2019-05-07T16:33:12.833Z,1.87
2019-05-07T16:35:42.323Z,1.82
2019-05-07T16:38:09.152Z,2.30
2019-05-07T16:40:36.376Z,2.00
2019-05-07T16:43:03.945Z,2.77
2019-05-07T16:45:31.270Z,2.50
2019-05-07T16:48:00.550Z,2.35
2019-05-07T16:50:27.440Z,1.90
2019-05-07T16:52:54.917Z,1.80
2019-05-07T16:55:24.845Z,1.35
2019-05-07T16:58:01.785Z,2.35
2019-05-07T17:00:31.864Z,2.20
2019-05-07T17:03:02.187Z,2.33
2019-05-07T17:05:29.515Z,2.22
2019-05-07T17:08:02.485Z,2.25
2019-05-07T17:10:31.653Z,2.08
2019-05-07T17:12:58.843Z,2.20
2019-05-07T17:15:26.113Z,2.45
2019-05-07T17:17:59.101Z,2.22
2019-05-07T17:20:26.385Z,2.60
2019-05-07T17:22:53.685Z,2.15
2019-05-07T17:25:39.035Z,2.08
2019-05-07T17:28:06.899Z,2.20
2019-05-07T17:30:34.117Z,2.05
2019-05-07T17:33:01.922Z,1.95
2019-05-07T17:35:29.288Z,2.27
2019-05-07T17:38:06.475Z,2.20
2019-05-07T17:40:25.432Z,2.50
2019-05-07T17:42:52.656Z,1.67
2019-05-07T17:45:19.860Z,1.98
2019-05-07T17:47:47.350Z,1.90
2019-05-07T17:50:16.251Z,2.33
2019-05-07T17:52:43.477Z,1.70
2019-05-07T17:55:13.049Z,1.40
2019-05-07T17:57:41.678Z,0.95
2019-05-07T18:00:09.280Z,1.10
2019-05-07T18:02:38.136Z,0.95
2019-05-07T18:05:05.881Z,1.30
2019-05-07T18:07:33.369Z,1.25
2019-05-07T18:10:02.371Z,1.05
2019-05-07T18:12:31.866Z,0.68
2019-05-07T18:14:58.616Z,0.80
2019-05-07T18:17:30.384Z,0.70
2019-05-07T18:19:57.686Z,0.70
2019-05-07T18:22:24.952Z,0.82
2019-05-07T18:24:52.171Z,0.90
2019-05-07T18:27:22.340Z,0.57
2019-05-07T18:29:52.099Z,0.70
2019-05-07T18:32:18.624Z,0.75
2019-05-07T18:34:45.845Z,0.47
2019-05-07T18:37:13.118Z,0.60
2019-05-07T18:39:42.667Z,1.00
2019-05-07T18:42:09.328Z,0.90
2019-05-07T18:44:36.581Z,0.65
2019-05-07T18:47:04.045Z,0.65
2019-05-07T18:49:31.343Z,0.60
2019-05-07T18:51:58.822Z,0.55
2019-05-07T18:54:30.903Z,0.50
2019-05-07T18:56:55.007Z,0.50
2019-05-07T18:59:23.871Z,0.60
2019-05-07T19:01:52.707Z,1.30
2019-05-07T19:04:21.918Z,0.80
2019-05-07T19:06:49.300Z,0.60
2019-05-07T19:09:16.577Z,0.60
2019-05-07T19:11:43.892Z,0.60
2019-05-07T19:14:13.214Z,0.47
2019-05-07T19:16:40.008Z,0.40
2019-05-07T19:19:07.806Z,0.50
2019-05-07T19:21:35.317Z,0.50
2019-05-07T19:24:02.594Z,0.60
2019-05-07T19:26:29.861Z,0.50
2019-05-07T19:28:57.301Z,0.70
2019-05-07T19:31:24.549Z,0.82
2019-05-07T19:33:52.524Z,0.68
2019-05-07T19:36:22.214Z,0.90
2019-05-07T19:38:48.974Z,0.70
2019-05-07T19:41:16.243Z,1.02
2019-05-07T19:43:43.719Z,0.50
2019-05-07T19:46:12.344Z,0.50
2019-05-07T19:48:39.760Z,0.47
2019-05-07T19:51:07.325Z,0.40
2019-05-07T19:53:34.585Z,0.40
2019-05-07T19:56:15.628Z,0.50
2019-05-07T19:58:42.896Z,0.50
2019-05-07T20:01:12.160Z,0.30
2019-05-07T20:03:39.600Z,0.30
2019-05-07T20:06:06.882Z,0.37
2019-05-07T20:08:34.148Z,0.20
2019-05-07T20:11:12.173Z,0.40
2019-05-07T20:13:41.669Z,0.47
2019-05-07T20:16:12.775Z,0.62
2019-05-07T20:18:40.232Z,0.55
2019-05-07T20:21:07.437Z,0.70
2019-05-07T20:23:34.922Z,0.62
2019-05-07T20:26:03.090Z,0.93
2019-05-07T20:28:32.704Z,1.30
2019-05-07T20:30:59.572Z,0.93
2019-05-07T20:33:26.872Z,0.88
2019-05-07T20:35:54.337Z,0.60
2019-05-07T20:38:21.560Z,0.50
2019-05-07T20:40:48.773Z,0.47
2019-05-07T20:43:16.068Z,0.40
2019-05-07T20:45:43.268Z,0.70
2019-05-07T20:48:10.750Z,0.60
2019-05-07T20:50:37.948Z,0.55
2019-05-07T20:53:05.239Z,0.70
2019-05-07T20:55:34.253Z,0.60
2019-05-07T20:58:03.055Z,0.68
2019-05-07T21:00:32.586Z,0.40
2019-05-07T21:03:17.716Z,0.42
2019-05-07T21:05:44.917Z,0.70
2019-05-07T21:08:12.440Z,0.72
2019-05-07T21:10:39.881Z,0.90
2019-05-07T21:13:07.077Z,1.82
2019-05-07T21:15:34.545Z,1.35
2019-05-07T21:18:01.834Z,1.05
2019-05-07T21:20:29.137Z,1.47
2019-05-07T21:22:56.357Z,1.50
2019-05-07T21:25:23.553Z,1.90
2019-05-07T21:27:53.114Z,1.67
2019-05-07T21:30:22.188Z,1.40
2019-05-07T21:32:49.137Z,1.30
2019-05-07T21:35:16.429Z,1.10
2019-05-07T21:37:43.625Z,0.90
2019-05-07T21:40:12.995Z,1.10
2019-05-07T21:42:40.002Z,1.10
2019-05-07T21:45:07.300Z,1.30
2019-05-07T21:47:34.756Z,0.93
2019-05-07T21:50:02.962Z,0.70
2019-05-07T21:52:32.902Z,0.80
2019-05-07T21:55:05.252Z,0.93
2019-05-07T21:57:37.060Z,1.07
2019-05-07T22:00:12.579Z,0.70
2019-05-07T22:02:41.622Z,0.60
2019-05-07T22:05:08.728Z,0.85
2019-05-07T22:07:35.984Z,0.90
2019-05-07T22:10:04.373Z,0.60
2019-05-07T22:12:32.024Z,0.70
2019-05-07T22:14:59.341Z,0.95
2019-05-07T22:17:26.545Z,1.00
2019-05-07T22:19:53.842Z,0.80
2019-05-07T22:22:23.968Z,0.98
2019-05-07T22:24:50.065Z,0.80
2019-05-07T22:27:17.267Z,0.70
2019-05-07T22:29:44.464Z,0.70
2019-05-07T22:32:19.450Z,1.10
2019-05-07T22:35:03.456Z,0.98
2019-05-07T22:37:32.436Z,0.72
2019-05-07T22:39:59.705Z,0.72
2019-05-07T22:42:26.932Z,0.95
2019-05-07T22:44:54.413Z,0.98
2019-05-07T22:47:22.624Z,0.75
2019-05-07T22:49:50.273Z,0.80
2019-05-07T22:52:17.543Z,0.70
2019-05-07T22:54:44.809Z,0.78
2019-05-07T22:57:19.308Z,1.20
2019-05-07T22:59:46.500Z,2.00
2019-05-07T23:02:13.726Z,1.40
2019-05-07T23:04:43.047Z,1.37
2019-05-07T23:07:09.870Z,1.52
2019-05-07T23:09:37.069Z,1.90
2019-05-07T23:12:04.379Z,1.80
2019-05-07T23:14:33.036Z,1.67
2019-05-07T23:17:02.245Z,1.75
2019-05-07T23:19:29.388Z,1.05
2019-05-07T23:21:56.660Z,1.35
2019-05-07T23:24:24.956Z,1.82
2019-05-07T23:26:53.620Z,1.30
2019-05-07T23:29:22.547Z,1.47
2019-05-07T23:31:50.029Z,1.10
2019-05-07T23:34:17.292Z,1.22
2019-05-07T23:36:44.588Z,1.30
2019-05-07T23:39:13.419Z,1.65
2019-05-07T23:41:42.280Z,1.60
2019-05-07T23:44:12.460Z,1.80
2019-05-07T23:46:40.000Z,1.50
2019-05-07T23:49:07.473Z,1.65
2019-05-07T23:51:34.672Z,1.82
2019-05-07T23:54:02.834Z,1.67
2019-05-07T23:56:30.151Z,1.92
2019-05-07T23:58:57.604Z,1.47
